createdAt,value
2023-03-25T05:16:16.743Z,99.90
2023-03-25T05:18:46.650Z,99.90
2023-03-25T05:21:16.754Z,99.90
2023-03-25T05:23:46.808Z,99.90
2023-03-25T05:26:16.753Z,99.90
2023-03-25T05:28:51.442Z,99.90
2023-03-25T05:31:21.516Z,99.90
2023-03-25T05:33:51.773Z,99.90
2023-03-25T05:36:21.649Z,99.90
2023-03-25T05:38:51.558Z,99.90
2023-03-25T05:41:22.883Z,99.90
2023-03-25T05:43:55.496Z,99.90
2023-03-25T05:46:25.413Z,99.90
2023-03-25T05:48:55.445Z,99.90
2023-03-25T05:51:26.074Z,99.90
2023-03-25T05:53:56.285Z,99.90
2023-03-25T05:56:26.708Z,99.90
2023-03-25T05:58:59.412Z,99.90
2023-03-25T06:01:33.654Z,99.90
2023-03-25T06:04:04.799Z,99.90
2023-03-25T06:06:36.238Z,99.90
2023-03-25T06:09:06.328Z,99.90
2023-03-25T06:11:38.812Z,99.90
2023-03-25T06:14:11.563Z,99.90
2023-03-25T06:16:41.486Z,99.90
2023-03-25T06:19:11.381Z,99.90
2023-03-25T06:21:41.393Z,99.90
2023-03-25T06:24:11.636Z,99.90
2023-03-25T06:26:41.547Z,99.90
2023-03-25T06:29:14.075Z,99.90
2023-03-25T06:31:44.018Z,99.90
2023-03-25T06:34:13.994Z,99.90
2023-03-25T06:36:43.881Z,99.90
2023-03-25T06:39:14.292Z,99.90
2023-03-25T06:41:44.290Z,99.90
2023-03-25T06:44:31.202Z,99.90
2023-03-25T06:47:30.370Z,99.90
2023-03-25T06:50:00.401Z,99.90
2023-03-25T06:52:30.254Z,99.90
2023-03-25T06:55:00.407Z,99.90
2023-03-25T06:57:30.393Z,99.90
2023-03-25T07:00:04.141Z,99.90
2023-03-25T07:02:34.208Z,99.90
2023-03-25T07:05:04.236Z,99.90
2023-03-25T07:07:34.499Z,99.90
2023-03-25T07:10:04.347Z,99.90
2023-03-25T07:12:37.049Z,99.90
2023-03-25T07:15:11.047Z,99.90
2023-03-25T07:17:43.712Z,99.90
2023-03-25T07:20:16.887Z,99.90
2023-03-25T07:22:47.163Z,99.90
2023-03-25T07:25:17.180Z,99.90
2023-03-25T07:27:47.104Z,99.90
2023-03-25T07:30:23.081Z,99.90
2023-03-25T07:32:53.042Z,99.90
2023-03-25T07:35:23.114Z,99.90
2023-03-25T07:37:53.018Z,99.90
2023-03-25T07:40:22.979Z,99.90
2023-03-25T07:42:52.919Z,99.90
2023-03-25T07:45:44.375Z,99.90
2023-03-25T07:48:24.566Z,99.90
2023-03-25T07:50:55.354Z,99.90
2023-03-25T07:53:25.554Z,99.90
2023-03-25T07:55:55.413Z,99.90
2023-03-25T07:58:25.679Z,99.90
2023-03-25T08:00:59.558Z,99.90
2023-03-25T08:03:30.114Z,99.90
2023-03-25T08:06:03.495Z,99.90
2023-03-25T08:08:33.423Z,99.90
2023-03-25T08:11:03.517Z,99.90
2023-03-25T08:13:33.812Z,99.90
2023-03-25T08:16:13.309Z,99.90
2023-03-25T08:18:45.367Z,99.90
2023-03-25T08:21:16.231Z,99.90
2023-03-25T08:23:46.146Z,99.90
2023-03-25T08:26:16.547Z,99.90
2023-03-25T08:28:47.601Z,99.90
2023-03-25T08:31:20.464Z,99.90
2023-03-25T08:33:50.536Z,99.90
2023-03-25T08:36:23.463Z,99.90
2023-03-25T08:38:53.577Z,99.90
2023-03-25T08:41:23.576Z,99.90
2023-03-25T08:43:53.504Z,99.90
2023-03-25T08:46:26.381Z,99.90
2023-03-25T08:48:56.609Z,99.90
2023-03-25T08:51:26.802Z,99.90
2023-03-25T08:53:56.681Z,99.90
2023-03-25T08:56:26.559Z,99.90
2023-03-25T08:58:56.444Z,99.90
2023-03-25T09:01:29.513Z,99.90
2023-03-25T09:03:59.457Z,99.90
2023-03-25T09:06:29.465Z,99.90
2023-03-25T09:09:18.254Z,99.90
2023-03-25T09:11:48.140Z,99.90
2023-03-25T09:14:18.189Z,99.90
2023-03-25T09:16:50.736Z,99.90
2023-03-25T09:19:21.451Z,99.90
2023-03-25T09:21:51.410Z,99.90
2023-03-25T09:24:22.871Z,99.90
2023-03-25T09:26:52.798Z,99.90
2023-03-25T09:29:22.677Z,99.90
2023-03-25T09:31:55.428Z,99.90
2023-03-25T09:34:25.687Z,99.90
2023-03-25T09:36:55.937Z,99.90
2023-03-25T09:39:25.946Z,99.90
2023-03-25T09:42:11.211Z,99.90
2023-03-25T09:44:55.735Z,99.90
2023-03-25T09:47:29.886Z,99.90
2023-03-25T09:50:05.237Z,99.90
2023-03-25T09:52:41.927Z,99.90
2023-03-25T09:55:18.444Z,99.90
2023-03-25T09:57:51.772Z,99.90
2023-03-25T10:00:25.353Z,99.90
2023-03-25T10:03:13.975Z,99.90
2023-03-25T10:06:00.209Z,99.90
2023-03-25T10:08:41.549Z,99.90
2023-03-25T10:11:17.652Z,99.90
2023-03-25T10:13:53.153Z,99.90
2023-03-25T10:16:33.651Z,99.90
2023-03-25T10:19:20.252Z,99.90
2023-03-25T10:21:54.813Z,99.90
2023-03-25T10:24:27.499Z,99.90
2023-03-25T10:27:03.044Z,99.90
2023-03-25T10:29:37.180Z,99.90
2023-03-25T10:32:11.180Z,99.90
2023-03-25T10:34:49.932Z,99.90
2023-03-25T10:37:29.092Z,99.90
2023-03-25T10:40:06.384Z,99.90
2023-03-25T10:42:42.699Z,99.90
2023-03-25T10:45:16.415Z,99.90
2023-03-25T10:47:49.306Z,99.90
2023-03-25T10:50:23.961Z,99.90
2023-03-25T10:52:56.834Z,99.90
2023-03-25T10:55:31.022Z,99.90
2023-03-25T10:58:01.878Z,99.90
2023-03-25T11:00:32.742Z,99.90
2023-03-25T11:03:02.810Z,99.90
2023-03-25T11:05:36.794Z,99.90
2023-03-25T11:08:22.000Z,99.90
2023-03-25T11:11:01.277Z,99.90
2023-03-25T11:13:33.609Z,99.90
2023-03-25T11:16:06.062Z,99.90
2023-03-25T11:18:40.566Z,99.90
2023-03-25T11:21:16.357Z,99.90
2023-03-25T11:23:47.955Z,99.90
2023-03-25T11:26:23.809Z,99.90
2023-03-25T11:28:56.866Z,99.90
2023-03-25T11:31:30.212Z,99.90
2023-03-25T11:34:08.457Z,99.90
2023-03-25T11:36:42.362Z,99.90
2023-03-25T11:39:20.036Z,99.90
2023-03-25T11:41:50.048Z,99.90
2023-03-25T11:44:25.904Z,99.90
2023-03-25T11:46:59.708Z,99.90
2023-03-25T11:49:29.951Z,99.90
2023-03-25T11:52:05.925Z,99.90
2023-03-25T11:54:39.212Z,99.50
2023-03-25T11:57:16.407Z,99.50
2023-03-25T11:59:48.677Z,98.70
2023-03-25T12:02:25.343Z,98.10
2023-03-25T12:05:00.540Z,98.10
2023-03-25T12:07:44.125Z,98.10
2023-03-25T12:10:21.132Z,98.20
2023-03-25T12:13:01.212Z,98.20
2023-03-25T12:15:41.686Z,96.90
2023-03-25T12:18:32.661Z,97.30
2023-03-25T12:21:13.973Z,97.20
2023-03-25T12:23:55.430Z,99.60
2023-03-25T12:26:31.996Z,97.20
2023-03-25T12:29:14.718Z,96.50
2023-03-25T12:31:57.272Z,98.00
2023-03-25T12:34:39.396Z,98.50
2023-03-25T12:37:22.399Z,97.50
2023-03-25T12:40:11.404Z,96.40
2023-03-25T12:42:49.185Z,95.70
2023-03-25T12:45:31.630Z,96.40
2023-03-25T12:48:10.203Z,96.50
2023-03-25T12:50:50.347Z,96.20
2023-03-25T12:53:34.576Z,97.00
2023-03-25T12:56:22.686Z,96.60
2023-03-25T12:59:16.302Z,98.80
2023-03-25T13:01:57.269Z,99.90
2023-03-25T13:04:51.927Z,99.90
2023-03-25T13:07:24.732Z,99.90
2023-03-25T13:10:03.867Z,99.90
2023-03-25T13:12:42.813Z,99.90
2023-03-25T13:15:26.806Z,99.90
2023-03-25T13:18:01.759Z,99.90
2023-03-25T13:20:37.953Z,99.90
2023-03-25T13:23:10.618Z,99.90
2023-03-25T13:25:50.218Z,99.90
2023-03-25T13:28:26.618Z,99.90
2023-03-25T13:30:58.039Z,99.90
2023-03-25T13:33:31.264Z,99.90
2023-03-25T13:36:08.163Z,99.90
2023-03-25T13:38:45.830Z,99.90
2023-03-25T13:41:20.250Z,99.90
2023-03-25T13:44:04.429Z,99.90
2023-03-25T13:46:39.909Z,99.10
2023-03-25T13:49:16.951Z,99.90
2023-03-25T13:51:48.147Z,99.50
2023-03-25T13:54:23.182Z,99.00
2023-03-25T13:57:24.621Z,98.10
2023-03-25T14:00:23.140Z,99.70
2023-03-25T14:03:39.533Z,98.60
2023-03-25T14:06:33.034Z,99.30
2023-03-25T14:09:26.642Z,99.10
2023-03-25T14:12:04.496Z,97.70
2023-03-25T14:14:38.489Z,97.70
2023-03-25T14:17:12.456Z,98.60
2023-03-25T14:19:47.226Z,97.60
2023-03-25T14:22:20.416Z,98.80
2023-03-25T14:24:51.878Z,99.50
2023-03-25T14:27:30.028Z,99.90
2023-03-25T14:30:02.149Z,99.90
2023-03-25T14:32:40.425Z,99.90
2023-03-25T14:35:47.363Z,99.90
2023-03-25T14:38:39.667Z,99.90
2023-03-25T14:41:09.894Z,99.90
2023-03-25T14:43:42.208Z,99.90
2023-03-25T14:46:21.931Z,99.90
2023-03-25T14:48:56.752Z,99.90
2023-03-25T14:51:48.513Z,99.90
2023-03-25T14:54:31.686Z,99.90
2023-03-25T14:57:09.380Z,99.90
2023-03-25T14:59:43.584Z,99.90
2023-03-25T15:02:19.895Z,99.90
2023-03-25T15:04:59.481Z,99.90
2023-03-25T15:07:46.292Z,99.90
2023-03-25T15:10:28.315Z,99.90
2023-03-25T15:13:04.906Z,99.90
2023-03-25T15:15:55.259Z,99.90
2023-03-25T15:18:58.428Z,99.90
2023-03-25T15:21:35.224Z,99.40
2023-03-25T15:24:12.110Z,99.90
2023-03-25T15:26:44.691Z,99.80
2023-03-25T15:29:31.705Z,99.00
2023-03-25T15:32:16.603Z,99.10
2023-03-25T15:38:33.108Z,99.60
2023-03-25T19:52:02.820Z,99.90
2023-03-25T19:54:33.243Z,99.90
2023-03-25T19:57:03.291Z,99.90
2023-03-25T19:59:36.148Z,99.90
2023-03-25T20:02:07.290Z,99.90
2023-03-25T20:04:37.200Z,99.90
2023-03-25T20:07:07.509Z,99.90
2023-03-25T20:09:37.454Z,99.90
2023-03-25T20:12:07.910Z,99.90
2023-03-25T20:14:40.969Z,99.90
2023-03-25T20:17:10.920Z,99.90
2023-03-25T20:19:41.903Z,99.90
2023-03-25T20:22:24.341Z,99.90
2023-03-25T20:24:56.152Z,99.90
2023-03-25T20:27:25.998Z,99.90
2023-03-25T20:29:58.560Z,99.90
2023-03-25T20:32:40.031Z,99.90
2023-03-25T20:35:14.118Z,99.90
2023-03-25T20:37:44.966Z,99.90
2023-03-25T20:40:18.200Z,99.90
2023-03-25T20:42:50.235Z,99.90
2023-03-25T20:45:29.227Z,99.90
2023-03-25T20:47:59.348Z,99.90
2023-03-25T20:50:29.445Z,99.90
2023-03-25T20:52:59.552Z,99.90
2023-03-25T20:55:29.405Z,99.90
2023-03-25T20:57:59.292Z,99.90
2023-03-25T21:00:31.955Z,99.90
2023-03-25T21:03:02.915Z,99.90
2023-03-25T21:05:32.934Z,99.90
2023-03-25T21:08:02.855Z,99.90
2023-03-25T21:10:32.741Z,99.90
2023-03-25T21:13:02.565Z,99.90
2023-03-25T21:15:35.027Z,99.90
2023-03-25T21:18:04.917Z,99.90
2023-03-25T21:20:35.543Z,99.90
2023-03-25T21:23:07.215Z,99.90
2023-03-25T21:25:37.603Z,99.90
2023-03-25T21:28:08.357Z,99.90
2023-03-25T21:30:41.483Z,99.90
2023-03-25T21:33:12.264Z,99.90
2023-03-25T21:35:42.169Z,99.90
2023-03-25T21:38:28.503Z,99.90
2023-03-25T21:41:00.979Z,99.90
2023-03-25T21:43:31.169Z,99.90
2023-03-25T21:46:05.121Z,99.90
2023-03-25T21:48:38.337Z,99.90
2023-03-25T21:51:14.456Z,99.90
2023-03-25T21:53:46.535Z,99.90
2023-03-25T21:56:18.102Z,99.90
2023-03-25T21:58:48.602Z,99.90
2023-03-25T22:01:23.493Z,99.90
2023-03-25T22:03:55.539Z,99.90
2023-03-25T22:06:27.997Z,99.90
2023-03-25T22:08:59.163Z,99.90
2023-03-25T22:11:31.899Z,99.90
2023-03-25T22:14:02.212Z,99.90
2023-03-25T22:16:35.300Z,99.90
2023-03-25T22:19:05.803Z,99.90
2023-03-25T22:21:37.665Z,99.90
2023-03-25T22:24:09.977Z,99.90
2023-03-25T22:26:43.113Z,99.90
2023-03-25T22:29:13.876Z,99.90
2023-03-25T22:31:46.357Z,99.90
2023-03-25T22:34:17.543Z,99.90
2023-03-25T22:36:50.649Z,99.90
2023-03-25T22:39:23.352Z,99.90
2023-03-25T22:41:53.368Z,99.90
2023-03-25T22:44:23.348Z,99.90
2023-03-25T22:46:55.870Z,99.90
2023-03-25T22:49:25.845Z,99.90
2023-03-25T22:51:55.971Z,99.90
2023-03-25T22:54:26.112Z,99.90
2023-03-25T22:56:56.061Z,99.90
2023-03-25T22:59:26.009Z,99.90
2023-03-25T23:01:58.663Z,99.90
2023-03-25T23:04:28.537Z,99.90
2023-03-25T23:07:07.110Z,99.90
2023-03-25T23:09:44.118Z,99.90
2023-03-25T23:12:15.770Z,99.90
2023-03-25T23:14:50.647Z,99.90
2023-03-25T23:17:23.916Z,99.90
2023-03-25T23:19:54.630Z,99.90
2023-03-25T23:22:25.231Z,99.90
2023-03-25T23:24:55.961Z,99.90
2023-03-25T23:27:27.053Z,99.90
2023-03-25T23:29:56.885Z,99.90
2023-03-25T23:32:29.506Z,99.90
2023-03-25T23:35:00.130Z,99.90
2023-03-25T23:37:30.486Z,99.90
2023-03-25T23:40:00.318Z,99.90
2023-03-25T23:42:34.941Z,99.90
2023-03-25T23:45:06.237Z,99.90
2023-03-25T23:47:38.822Z,99.90
2023-03-25T23:50:10.152Z,99.90
2023-03-25T23:52:40.083Z,99.90
2023-03-25T23:55:12.449Z,99.90
2023-03-25T23:57:42.585Z,99.90
